Big Bear Station Historical Data
Daily Summary for July 24, 2017 Units:  English    Metric   Both
« Previous Day
Next Day »
Daily Weekly Monthly Yearly Custom
  High: Low: Average:
Temperature: 79.9 °F 57.9 °F 65.2 °F
Dew Point: 61.4 °F 49.4 °F 54.7 °F
Humidity: 86 % 43 % 70 %
Wind Speed: 6.3 mph 0.0 mph 1 mph
Wind Gust: -999.0 mph - -
Wind:- - West
Pressure: 23.57 in 23.53 in -
Precipitation: 0.07 in    
Historical Graphs
 
 
Tabular Data for July 24, 2017
Time Temperature Dew Point Pressure Wind Wind Speed Wind Gust Humidity Rainfall Rate (Hourly)
00:09 61.7 °F 49.8 °F 23.57 in Calm   -999.0 mph 65 % 0 in
00:24 61.2 °F 49.8 °F 23.57 in Calm   -999.0 mph 66 % 0 in
00:39 60.8 °F 49.4 °F 23.57 in Calm   -999.0 mph 66 % 0 in
00:54 60.6 °F 49.6 °F 23.56 in Calm   -999.0 mph 67 % 0 in
01:10 60.8 °F 50.2 °F 23.57 in Calm   -999.0 mph 68 % 0 in
01:25 60.8 °F 49.4 °F 23.57 in Calm   -999.0 mph 66 % 0 in
01:40 60.8 °F 49.8 °F 23.56 in Calm   -999.0 mph 67 % 0 in
01:55 60.3 °F 50.5 °F 23.56 in South 1.7 mph -999.0 mph 70 % 0 in
02:11 59.9 °F 50.1 °F 23.56 in Calm   -999.0 mph 70 % 0 in
02:26 59.5 °F 49.7 °F 23.55 in Calm   -999.0 mph 70 % 0 in
02:41 59.5 °F 50.5 °F 23.55 in SSE 1.7 mph -999.0 mph 72 % 0 in
02:56 59.2 °F 50.2 °F 23.54 in Calm   -999.0 mph 72 % 0 in
03:11 59.0 °F 49.6 °F 23.54 in Calm   -999.0 mph 71 % 0 in
03:27 59.0 °F 50.0 °F 23.54 in Calm   -999.0 mph 72 % 0 in
03:42 59.2 °F 50.2 °F 23.54 in SE 1.1 mph -999.0 mph 72 % 0 in
03:57 59.0 °F 49.6 °F 23.54 in Calm   -999.0 mph 71 % 0 in
04:12 58.8 °F 49.4 °F 23.54 in Calm   -999.0 mph 71 % 0 in
04:27 58.8 °F 50.2 °F 23.55 in Calm   -999.0 mph 73 % 0 in
04:43 58.8 °F 50.9 °F 23.55 in Calm   -999.0 mph 75 % 0 in
04:58 58.6 °F 51.8 °F 23.55 in Calm   -999.0 mph 78 % 0 in
05:13 58.6 °F 51.8 °F 23.55 in Calm   -999.0 mph 78 % 0 in
05:28 58.6 °F 51.8 °F 23.55 in Calm   -999.0 mph 78 % 0 in
05:43 58.3 °F 51.5 °F 23.56 in Calm   -999.0 mph 78 % 0 in
05:59 57.9 °F 50.7 °F 23.56 in Calm   -999.0 mph 77 % 0 in
06:14 57.9 °F 50.7 °F 23.56 in Calm   -999.0 mph 77 % 0 in
06:29 58.3 °F 50.8 °F 23.56 in Calm   -999.0 mph 76 % 0 in
06:44 58.6 °F 51.4 °F 23.56 in Calm   -999.0 mph 77 % 0 in
06:59 58.5 °F 51.7 °F 23.56 in Calm   -999.0 mph 78 % 0 in
07:15 58.5 °F 52.0 °F 23.56 in Calm   -999.0 mph 79 % 0 in
07:30 59.4 °F 53.2 °F 23.56 in Calm   -999.0 mph 80 % 0 in
07:45 60.4 °F 54.2 °F 23.56 in Calm   -999.0 mph 80 % 0 in
08:00 62.6 °F 55.6 °F 23.56 in NNW 1.7 mph -999.0 mph 78 % 0 in
08:16 64.2 °F 55.0 °F 23.56 in NNW 2.2 mph -999.0 mph 72 % 0 in
08:31 65.5 °F 55.5 °F 23.57 in Calm   -999.0 mph 70 % 0 in
08:46 67.1 °F 54.9 °F 23.57 in Calm   -999.0 mph 65 % 0 in
09:17 69.4 °F 53.5 °F 23.57 in South 3.2 mph -999.0 mph 57 % 0 in
09:32 69.8 °F 53.4 °F 23.57 in West 4.7 mph -999.0 mph 56 % 0 in
09:48 71.1 °F 54.6 °F 23.57 in WNW 3.7 mph -999.0 mph 56 % 0 in
10:03 72.1 °F 55.5 °F 23.57 in NNW 4.7 mph -999.0 mph 56 % 0 in
10:18 71.8 °F 53.8 °F 23.57 in NW 4.7 mph -999.0 mph 53 % 0 in
10:33 70.9 °F 53.4 °F 23.57 in NNW 6.3 mph -999.0 mph 54 % 0 in
10:49 70.2 °F 52.3 °F 23.57 in West 2.7 mph -999.0 mph 53 % 0 in
11:04 70.2 °F 52.3 °F 23.57 in NW 4.7 mph -999.0 mph 53 % 0 in
11:19 71.2 °F 52.7 °F 23.57 in NW 3.7 mph -999.0 mph 52 % 0 in
11:34 71.1 °F 52.6 °F 23.57 in NW 3.2 mph -999.0 mph 52 % 0 in
11:50 70.3 °F 52.4 °F 23.57 in NNW 4.7 mph -999.0 mph 53 % 0 in
12:05 71.4 °F 54.4 °F 23.57 in NW 2.7 mph -999.0 mph 55 % 0 in
12:20 71.6 °F 54.1 °F 23.57 in NW 3.2 mph -999.0 mph 54 % 0 in
12:36 71.8 °F 53.8 °F 23.57 in WNW 2.2 mph -999.0 mph 53 % 0 in
12:51 71.2 °F 53.7 °F 23.56 in NNE 2.7 mph -999.0 mph 54 % 0 in
13:06 75.2 °F 55.3 °F 23.56 in NNW 3.2 mph -999.0 mph 50 % 0 in
13:22 76.1 °F 55.0 °F 23.56 in NW 1.7 mph -999.0 mph 48 % 0 in
13:37 78.6 °F 54.9 °F 23.55 in NNW 3.2 mph -999.0 mph 44 % 0 in
13:52 79.9 °F 55.4 °F 23.55 in NW 4.2 mph -999.0 mph 43 % 0 in
14:07 77.7 °F 54.7 °F 23.55 in NNW 3.7 mph -999.0 mph 45 % 0 in
14:23 74.8 °F 56.0 °F 23.55 in North 2.2 mph -999.0 mph 52 % 0 in
14:38 71.4 °F 60.3 °F 23.56 in Calm   -999.0 mph 68 % 0 in
14:53 66.4 °F 60.4 °F 23.56 in South 2.7 mph -999.0 mph 81 % 0 in
15:09 66.2 °F 60.2 °F 23.56 in SSE 1.1 mph -999.0 mph 81 % 0 in
15:24 66.4 °F 59.3 °F 23.56 in Calm   -999.0 mph 78 % 0 in
15:39 66.4 °F 60.0 °F 23.56 in Calm   -999.0 mph 80 % 0 in
15:54 66.4 °F 59.3 °F 23.55 in Calm   -999.0 mph 78 % 0 in
16:09 66.4 °F 59.7 °F 23.54 in Calm   -999.0 mph 79 % 0 in
16:25 66.6 °F 60.6 °F 23.53 in Calm   -999.0 mph 81 % 0 in
16:40 66.6 °F 60.6 °F 23.53 in Calm   -999.0 mph 81 % 0 in
16:55 66.9 °F 60.2 °F 23.54 in Calm   -999.0 mph 79 % 0 in
17:10 68.2 °F 61.4 °F 23.54 in Calm   -999.0 mph 79 % 0 in
17:26 67.8 °F 60.7 °F 23.54 in ENE 1.1 mph -999.0 mph 78 % 0 in
17:41 69.6 °F 61.3 °F 23.54 in Calm   -999.0 mph 75 % 0 in
17:56 70.7 °F 60.4 °F 23.53 in Calm   -999.0 mph 70 % 0 in
18:11 74.8 °F 61.4 °F 23.53 in WNW 1.1 mph -999.0 mph 63 % 0 in
18:26 71.4 °F 61.1 °F 23.53 in Calm   -999.0 mph 70 % 0 in
18:42 71.2 °F 60.1 °F 23.53 in Calm   -999.0 mph 68 % 0 in
18:57 74.1 °F 58.9 °F 23.53 in WNW 2.2 mph -999.0 mph 59 % 0 in
19:12 74.1 °F 60.7 °F 23.54 in Calm   -999.0 mph 63 % 0 in
19:27 70.7 °F 58.8 °F 23.54 in Calm   -999.0 mph 66 % 0 in
19:42 68.7 °F 57.7 °F 23.54 in Calm   -999.0 mph 68 % 0 in
19:58 67.1 °F 57.0 °F 23.54 in Calm   -999.0 mph 70 % 0 in
20:13 64.9 °F 56.8 °F 23.54 in South 1.7 mph -999.0 mph 75 % 0 in
20:28 64.0 °F 57.0 °F 23.54 in Calm   -999.0 mph 78 % 0 in
20:43 63.3 °F 57.4 °F 23.55 in Calm   -999.0 mph 81 % 0 in
20:58 62.8 °F 56.9 °F 23.55 in Calm   -999.0 mph 81 % 0 in
21:14 62.2 °F 57.0 °F 23.55 in Calm   -999.0 mph 83 % 0 in
21:29 61.7 °F 56.8 °F 23.56 in Calm   -999.0 mph 84 % 0 in
21:44 61.2 °F 56.7 °F 23.56 in Calm   -999.0 mph 85 % 0 in
21:59 60.6 °F 56.1 °F 23.56 in Calm   -999.0 mph 85 % 0 in
22:14 60.3 °F 55.8 °F 23.56 in Calm   -999.0 mph 85 % 0 in
22:30 59.7 °F 54.9 °F 23.56 in Calm   -999.0 mph 84 % 0 in
22:45 59.5 °F 55.3 °F 23.57 in Calm   -999.0 mph 86 % 0 in
23:01 59.4 °F 55.2 °F 23.56 in Calm   -999.0 mph 86 % 0 in
23:16 58.8 °F 54.6 °F 23.56 in Calm   -999.0 mph 86 % 0 in
23:31 59.2 °F 54.4 °F 23.57 in NW 1.7 mph -999.0 mph 84 % 0 in
23:46 59.7 °F 54.2 °F 23.57 in Calm   -999.0 mph 82 % 0 in
Big Bear CA Weather
Compliments of Weather Underground - 1.5 mb